sensor_id;sensor_type;location;lat;lon;timestamp;temperature;humidity
62906;DHT22;49003;51.038;3.602;2022-09-02T00:01:45;14.60;99.90
62906;DHT22;49003;51.038;3.602;2022-09-02T00:04:17;14.60;99.90
62906;DHT22;49003;51.038;3.602;2022-09-02T00:06:45;14.70;99.90
62906;DHT22;49003;51.038;3.602;2022-09-02T00:09:13;14.70;99.90
62906;DHT22;49003;51.038;3.602;2022-09-02T00:11:43;14.80;99.90
62906;DHT22;49003;51.038;3.602;2022-09-02T00:14:13;14.90;99.90
62906;DHT22;49003;51.038;3.602;2022-09-02T00:16:41;15.00;99.90
62906;DHT22;49003;51.038;3.602;2022-09-02T00:19:09;15.00;99.90
62906;DHT22;49003;51.038;3.602;2022-09-02T00:21:35;15.00;99.90
62906;DHT22;49003;51.038;3.602;2022-09-02T00:24:02;15.00;99.90
62906;DHT22;49003;51.038;3.602;2022-09-02T00:26:28;15.00;99.90
62906;DHT22;49003;51.038;3.602;2022-09-02T00:28:54;15.00;99.90
62906;DHT22;49003;51.038;3.602;2022-09-02T00:31:20;15.00;99.90
62906;DHT22;49003;51.038;3.602;2022-09-02T00:33:45;15.10;99.90
62906;DHT22;49003;51.038;3.602;2022-09-02T00:36:12;15.10;99.90
62906;DHT22;49003;51.038;3.602;2022-09-02T00:38:38;15.10;99.90
62906;DHT22;49003;51.038;3.602;2022-09-02T00:41:07;15.10;99.90
62906;DHT22;49003;51.038;3.602;2022-09-02T00:43:46;15.10;99.90
62906;DHT22;49003;51.038;3.602;2022-09-02T00:46:17;15.10;99.90
62906;DHT22;49003;51.038;3.602;2022-09-02T00:48:55;15.10;99.90
62906;DHT22;49003;51.038;3.602;2022-09-02T00:51:22;15.00;99.90
62906;DHT22;49003;51.038;3.602;2022-09-02T00:53:49;15.00;99.90
62906;DHT22;49003;51.038;3.602;2022-09-02T00:56:22;14.90;99.90
62906;DHT22;49003;51.038;3.602;2022-09-02T00:58:49;14.90;99.90
62906;DHT22;49003;51.038;3.602;2022-09-02T01:01:15;14.80;99.90
62906;DHT22;49003;51.038;3.602;2022-09-02T01:03:41;14.80;99.90
62906;DHT22;49003;51.038;3.602;2022-09-02T01:06:10;14.80;99.90
62906;DHT22;49003;51.038;3.602;2022-09-02T01:08:45;14.80;99.90
62906;DHT22;49003;51.038;3.602;2022-09-02T01:11:12;14.70;99.90
62906;DHT22;49003;51.038;3.602;2022-09-02T01:13:41;14.60;99.90
62906;DHT22;49003;51.038;3.602;2022-09-02T01:16:23;14.50;99.90
62906;DHT22;49003;51.038;3.602;2022-09-02T01:18:54;14.40;99.90
62906;DHT22;49003;51.038;3.602;2022-09-02T01:21:22;14.30;99.90
62906;DHT22;49003;51.038;3.602;2022-09-02T01:23:49;14.30;99.90
62906;DHT22;49003;51.038;3.602;2022-09-02T01:26:17;14.20;99.90
62906;DHT22;49003;51.038;3.602;2022-09-02T01:28:43;14.10;99.90
62906;DHT22;49003;51.038;3.602;2022-09-02T01:31:08;14.00;99.90
62906;DHT22;49003;51.038;3.602;2022-09-02T01:33:34;13.90;99.90
62906;DHT22;49003;51.038;3.602;2022-09-02T01:36:00;13.90;99.90
62906;DHT22;49003;51.038;3.602;2022-09-02T01:38:28;13.90;99.90
62906;DHT22;49003;51.038;3.602;2022-09-02T01:40:54;13.90;99.90
62906;DHT22;49003;51.038;3.602;2022-09-02T01:43:22;13.90;99.90
62906;DHT22;49003;51.038;3.602;2022-09-02T01:45:52;13.90;99.90
62906;DHT22;49003;51.038;3.602;2022-09-02T01:48:19;14.00;99.90
62906;DHT22;49003;51.038;3.602;2022-09-02T01:50:51;14.00;99.90
62906;DHT22;49003;51.038;3.602;2022-09-02T01:53:19;14.00;99.90
62906;DHT22;49003;51.038;3.602;2022-09-02T01:55:45;13.90;99.90
62906;DHT22;49003;51.038;3.602;2022-09-02T01:58:11;13.90;99.90
62906;DHT22;49003;51.038;3.602;2022-09-02T02:00:37;13.80;99.90
62906;DHT22;49003;51.038;3.602;2022-09-02T02:03:03;13.70;99.90
62906;DHT22;49003;51.038;3.602;2022-09-02T02:05:29;13.60;99.90
62906;DHT22;49003;51.038;3.602;2022-09-02T02:07:55;13.60;99.90
62906;DHT22;49003;51.038;3.602;2022-09-02T02:10:21;13.50;99.90
62906;DHT22;49003;51.038;3.602;2022-09-02T02:12:49;13.60;99.90
62906;DHT22;49003;51.038;3.602;2022-09-02T02:15:17;13.50;99.90
62906;DHT22;49003;51.038;3.602;2022-09-02T02:17:43;13.40;99.90
62906;DHT22;49003;51.038;3.602;2022-09-02T02:20:10;13.30;99.90
62906;DHT22;49003;51.038;3.602;2022-09-02T02:22:36;13.30;99.90
62906;DHT22;49003;51.038;3.602;2022-09-02T02:25:04;13.30;99.90
62906;DHT22;49003;51.038;3.602;2022-09-02T02:27:29;13.30;99.90
62906;DHT22;49003;51.038;3.602;2022-09-02T02:29:55;13.20;99.90
62906;DHT22;49003;51.038;3.602;2022-09-02T02:32:23;13.20;99.90
62906;DHT22;49003;51.038;3.602;2022-09-02T02:34:50;13.20;99.90
62906;DHT22;49003;51.038;3.602;2022-09-02T02:37:16;13.20;99.90
62906;DHT22;49003;51.038;3.602;2022-09-02T02:39:42;13.20;99.90
62906;DHT22;49003;51.038;3.602;2022-09-02T02:42:11;13.10;99.90
62906;DHT22;49003;51.038;3.602;2022-09-02T02:44:38;13.10;99.90
62906;DHT22;49003;51.038;3.602;2022-09-02T02:47:07;13.10;99.90
62906;DHT22;49003;51.038;3.602;2022-09-02T02:49:39;13.00;99.90
62906;DHT22;49003;51.038;3.602;2022-09-02T02:52:07;12.90;99.90
62906;DHT22;49003;51.038;3.602;2022-09-02T02:54:32;12.90;99.90
62906;DHT22;49003;51.038;3.602;2022-09-02T02:56:58;12.90;99.90
62906;DHT22;49003;51.038;3.602;2022-09-02T02:59:28;12.80;99.90
62906;DHT22;49003;51.038;3.602;2022-09-02T03:01:54;12.80;99.90
62906;DHT22;49003;51.038;3.602;2022-09-02T03:04:20;12.80;99.90
62906;DHT22;49003;51.038;3.602;2022-09-02T03:06:48;12.80;99.90
62906;DHT22;49003;51.038;3.602;2022-09-02T03:09:15;12.70;99.90
62906;DHT22;49003;51.038;3.602;2022-09-02T03:11:45;12.70;99.90
62906;DHT22;49003;51.038;3.602;2022-09-02T03:14:11;12.70;99.90
62906;DHT22;49003;51.038;3.602;2022-09-02T03:16:36;12.70;99.90
62906;DHT22;49003;51.038;3.602;2022-09-02T03:19:03;12.70;99.90
62906;DHT22;49003;51.038;3.602;2022-09-02T03:21:29;12.70;99.90
62906;DHT22;49003;51.038;3.602;2022-09-02T03:23:57;12.70;99.90
62906;DHT22;49003;51.038;3.602;2022-09-02T03:26:26;12.50;99.90
62906;DHT22;49003;51.038;3.602;2022-09-02T03:28:55;12.60;99.90
62906;DHT22;49003;51.038;3.602;2022-09-02T03:31:22;12.50;99.90
62906;DHT22;49003;51.038;3.602;2022-09-02T03:33:49;12.40;99.90
62906;DHT22;49003;51.038;3.602;2022-09-02T03:36:20;12.40;99.90
62906;DHT22;49003;51.038;3.602;2022-09-02T03:38:46;12.40;99.90
62906;DHT22;49003;51.038;3.602;2022-09-02T03:41:12;12.40;99.90
62906;DHT22;49003;51.038;3.602;2022-09-02T03:43:38;12.40;99.90
62906;DHT22;49003;51.038;3.602;2022-09-02T03:46:05;12.40;99.90
62906;DHT22;49003;51.038;3.602;2022-09-02T03:48:35;12.40;99.90
62906;DHT22;49003;51.038;3.602;2022-09-02T03:51:01;12.30;99.90
62906;DHT22;49003;51.038;3.602;2022-09-02T03:53:27;12.30;99.90
62906;DHT22;49003;51.038;3.602;2022-09-02T03:55:53;12.30;99.90
62906;DHT22;49003;51.038;3.602;2022-09-02T03:58:20;12.30;99.90
62906;DHT22;49003;51.038;3.602;2022-09-02T04:00:52;12.30;99.90
62906;DHT22;49003;51.038;3.602;2022-09-02T04:03:21;12.40;99.90
62906;DHT22;49003;51.038;3.602;2022-09-02T04:05:49;12.40;99.90
62906;DHT22;49003;51.038;3.602;2022-09-02T04:08:16;12.40;99.90
62906;DHT22;49003;51.038;3.602;2022-09-02T04:10:42;12.30;99.90
62906;DHT22;49003;51.038;3.602;2022-09-02T04:13:07;12.40;99.90
62906;DHT22;49003;51.038;3.602;2022-09-02T04:15:38;12.40;99.90
62906;DHT22;49003;51.038;3.602;2022-09-02T04:18:04;12.40;99.90
62906;DHT22;49003;51.038;3.602;2022-09-02T04:20:29;12.40;99.90
62906;DHT22;49003;51.038;3.602;2022-09-02T04:22:55;12.30;99.90
62906;DHT22;49003;51.038;3.602;2022-09-02T04:25:21;12.30;99.90
62906;DHT22;49003;51.038;3.602;2022-09-02T04:27:48;12.20;99.90
62906;DHT22;49003;51.038;3.602;2022-09-02T04:30:16;12.30;99.90
62906;DHT22;49003;51.038;3.602;2022-09-02T04:32:42;12.20;99.90
62906;DHT22;49003;51.038;3.602;2022-09-02T04:35:08;12.30;99.90
62906;DHT22;49003;51.038;3.602;2022-09-02T04:37:34;12.20;99.90
62906;DHT22;49003;51.038;3.602;2022-09-02T04:40:00;12.20;99.90
62906;DHT22;49003;51.038;3.602;2022-09-02T04:42:26;12.30;99.90
62906;DHT22;49003;51.038;3.602;2022-09-02T04:44:52;12.40;99.90
62906;DHT22;49003;51.038;3.602;2022-09-02T04:47:19;12.30;99.90
62906;DHT22;49003;51.038;3.602;2022-09-02T04:49:44;12.30;99.90
62906;DHT22;49003;51.038;3.602;2022-09-02T04:52:10;12.30;99.90
62906;DHT22;49003;51.038;3.602;2022-09-02T04:54:36;12.40;99.90
62906;DHT22;49003;51.038;3.602;2022-09-02T04:57:02;12.30;99.90
62906;DHT22;49003;51.038;3.602;2022-09-02T04:59:28;12.30;99.90
62906;DHT22;49003;51.038;3.602;2022-09-02T05:01:56;12.30;99.90
62906;DHT22;49003;51.038;3.602;2022-09-02T05:04:22;12.30;99.90
62906;DHT22;49003;51.038;3.602;2022-09-02T05:06:50;12.40;99.90
62906;DHT22;49003;51.038;3.602;2022-09-02T05:09:15;12.30;99.90
62906;DHT22;49003;51.038;3.602;2022-09-02T05:11:43;12.30;99.90
62906;DHT22;49003;51.038;3.602;2022-09-02T05:14:10;12.20;99.90
62906;DHT22;49003;51.038;3.602;2022-09-02T05:16:38;12.20;99.90
62906;DHT22;49003;51.038;3.602;2022-09-02T05:19:08;12.20;99.90
62906;DHT22;49003;51.038;3.602;2022-09-02T05:21:40;12.20;99.90
62906;DHT22;49003;51.038;3.602;2022-09-02T05:24:07;12.20;99.90
62906;DHT22;49003;51.038;3.602;2022-09-02T05:26:32;12.10;99.90
62906;DHT22;49003;51.038;3.602;2022-09-02T05:29:01;12.10;99.90
62906;DHT22;49003;51.038;3.602;2022-09-02T05:31:27;12.10;99.90
62906;DHT22;49003;51.038;3.602;2022-09-02T05:33:53;12.10;99.90
62906;DHT22;49003;51.038;3.602;2022-09-02T05:36:22;12.20;99.90
62906;DHT22;49003;51.038;3.602;2022-09-02T05:38:48;12.30;99.90
62906;DHT22;49003;51.038;3.602;2022-09-02T05:41:17;12.50;99.90
62906;DHT22;49003;51.038;3.602;2022-09-02T05:43:47;12.80;99.90
62906;DHT22;49003;51.038;3.602;2022-09-02T05:46:17;13.00;99.90
62906;DHT22;49003;51.038;3.602;2022-09-02T05:48:46;13.30;99.90
62906;DHT22;49003;51.038;3.602;2022-09-02T05:51:48;13.60;99.90
62906;DHT22;49003;51.038;3.602;2022-09-02T05:54:17;13.90;99.90
62906;DHT22;49003;51.038;3.602;2022-09-02T05:56:45;14.20;99.90
62906;DHT22;49003;51.038;3.602;2022-09-02T05:59:13;14.40;99.90
62906;DHT22;49003;51.038;3.602;2022-09-02T06:01:39;14.70;99.90
62906;DHT22;49003;51.038;3.602;2022-09-02T06:04:06;14.90;99.90
62906;DHT22;49003;51.038;3.602;2022-09-02T06:06:35;15.10;99.90
62906;DHT22;49003;51.038;3.602;2022-09-02T06:09:06;15.30;99.90
62906;DHT22;49003;51.038;3.602;2022-09-02T06:11:37;15.50;99.90
62906;DHT22;49003;51.038;3.602;2022-09-02T06:14:07;15.70;99.90
62906;DHT22;49003;51.038;3.602;2022-09-02T06:16:34;16.00;99.90
62906;DHT22;49003;51.038;3.602;2022-09-02T06:18:59;16.20;99.90
62906;DHT22;49003;51.038;3.602;2022-09-02T06:21:30;16.40;99.90
62906;DHT22;49003;51.038;3.602;2022-09-02T06:23:56;16.50;99.90
62906;DHT22;49003;51.038;3.602;2022-09-02T06:26:22;16.80;99.90
62906;DHT22;49003;51.038;3.602;2022-09-02T06:28:47;16.90;99.90
62906;DHT22;49003;51.038;3.602;2022-09-02T06:31:19;16.90;99.90
62906;DHT22;49003;51.038;3.602;2022-09-02T06:33:46;16.90;99.90
62906;DHT22;49003;51.038;3.602;2022-09-02T06:36:15;17.00;99.90
62906;DHT22;49003;51.038;3.602;2022-09-02T06:38:43;16.90;99.90
62906;DHT22;49003;51.038;3.602;2022-09-02T06:41:18;17.10;99.90
62906;DHT22;49003;51.038;3.602;2022-09-02T06:43:45;17.10;99.90
62906;DHT22;49003;51.038;3.602;2022-09-02T06:46:20;17.20;99.90
62906;DHT22;49003;51.038;3.602;2022-09-02T06:48:48;17.20;99.90
62906;DHT22;49003;51.038;3.602;2022-09-02T06:51:19;17.10;99.90
62906;DHT22;49003;51.038;3.602;2022-09-02T06:53:46;17.10;99.90
62906;DHT22;49003;51.038;3.602;2022-09-02T06:56:12;17.00;99.90
62906;DHT22;49003;51.038;3.602;2022-09-02T06:58:37;17.00;99.90
62906;DHT22;49003;51.038;3.602;2022-09-02T07:01:05;17.00;99.90
62906;DHT22;49003;51.038;3.602;2022-09-02T07:03:33;17.10;99.90
62906;DHT22;49003;51.038;3.602;2022-09-02T07:06:18;17.20;99.90
62906;DHT22;49003;51.038;3.602;2022-09-02T07:08:45;17.20;99.90
62906;DHT22;49003;51.038;3.602;2022-09-02T07:11:18;17.30;99.90
62906;DHT22;49003;51.038;3.602;2022-09-02T07:13:44;17.40;99.90
62906;DHT22;49003;51.038;3.602;2022-09-02T07:16:10;17.40;99.90
62906;DHT22;49003;51.038;3.602;2022-09-02T07:18:36;17.40;99.90
62906;DHT22;49003;51.038;3.602;2022-09-02T07:21:06;17.60;99.90
62906;DHT22;49003;51.038;3.602;2022-09-02T07:23:35;17.70;99.90
62906;DHT22;49003;51.038;3.602;2022-09-02T07:26:01;18.00;99.90
62906;DHT22;49003;51.038;3.602;2022-09-02T07:28:26;18.10;99.90
62906;DHT22;49003;51.038;3.602;2022-09-02T07:30:52;18.30;99.90
62906;DHT22;49003;51.038;3.602;2022-09-02T07:33:21;18.60;99.90
62906;DHT22;49003;51.038;3.602;2022-09-02T07:35:47;18.70;99.90
62906;DHT22;49003;51.038;3.602;2022-09-02T07:38:14;18.80;99.90
62906;DHT22;49003;51.038;3.602;2022-09-02T07:40:41;19.00;99.90
62906;DHT22;49003;51.038;3.602;2022-09-02T07:43:08;19.10;99.90
62906;DHT22;49003;51.038;3.602;2022-09-02T07:45:35;19.30;99.90
62906;DHT22;49003;51.038;3.602;2022-09-02T07:48:05;19.60;99.90
62906;DHT22;49003;51.038;3.602;2022-09-02T07:50:34;19.70;99.90
62906;DHT22;49003;51.038;3.602;2022-09-02T07:53:00;19.80;99.90
62906;DHT22;49003;51.038;3.602;2022-09-02T07:55:28;19.90;99.90
62906;DHT22;49003;51.038;3.602;2022-09-02T07:57:55;20.00;99.90
62906;DHT22;49003;51.038;3.602;2022-09-02T08:00:21;20.10;99.90
62906;DHT22;49003;51.038;3.602;2022-09-02T08:02:47;20.20;99.90
62906;DHT22;49003;51.038;3.602;2022-09-02T08:05:14;20.40;99.90
62906;DHT22;49003;51.038;3.602;2022-09-02T08:07:40;20.50;99.90
62906;DHT22;49003;51.038;3.602;2022-09-02T08:10:07;20.60;99.90
62906;DHT22;49003;51.038;3.602;2022-09-02T08:12:36;20.80;99.90
62906;DHT22;49003;51.038;3.602;2022-09-02T08:15:03;20.90;99.90
62906;DHT22;49003;51.038;3.602;2022-09-02T08:17:29;21.00;99.90
62906;DHT22;49003;51.038;3.602;2022-09-02T08:19:57;21.10;99.90
62906;DHT22;49003;51.038;3.602;2022-09-02T08:22:23;21.30;99.90
62906;DHT22;49003;51.038;3.602;2022-09-02T08:24:49;21.40;99.90
62906;DHT22;49003;51.038;3.602;2022-09-02T08:27:15;21.50;99.90
62906;DHT22;49003;51.038;3.602;2022-09-02T08:29:43;21.60;99.90
62906;DHT22;49003;51.038;3.602;2022-09-02T08:32:09;21.80;99.90
62906;DHT22;49003;51.038;3.602;2022-09-02T08:34:35;22.00;99.90
62906;DHT22;49003;51.038;3.602;2022-09-02T08:37:02;21.90;99.90
62906;DHT22;49003;51.038;3.602;2022-09-02T08:39:31;22.10;99.90
62906;DHT22;49003;51.038;3.602;2022-09-02T08:44:42;22.30;99.90
62906;DHT22;49003;51.038;3.602;2022-09-02T08:47:24;22.40;99.90
62906;DHT22;49003;51.038;3.602;2022-09-02T08:49:57;22.60;99.90
62906;DHT22;49003;51.038;3.602;2022-09-02T08:52:37;22.70;99.90
62906;DHT22;49003;51.038;3.602;2022-09-02T08:55:05;22.80;99.90
62906;DHT22;49003;51.038;3.602;2022-09-02T08:57:34;22.80;99.90
62906;DHT22;49003;51.038;3.602;2022-09-02T09:00:00;23.00;99.90
62906;DHT22;49003;51.038;3.602;2022-09-02T09:02:53;23.10;99.90
62906;DHT22;49003;51.038;3.602;2022-09-02T09:05:37;23.30;99.90
62906;DHT22;49003;51.038;3.602;2022-09-02T09:16:29;24.00;99.40
62906;DHT22;49003;51.038;3.602;2022-09-02T09:21:30;24.10;99.10
62906;DHT22;49003;51.038;3.602;2022-09-02T09:23:56;24.30;98.40
62906;DHT22;49003;51.038;3.602;2022-09-02T09:26:28;24.40;98.00
62906;DHT22;49003;51.038;3.602;2022-09-02T09:28:55;24.50;98.30
62906;DHT22;49003;51.038;3.602;2022-09-02T09:31:28;24.70;97.20
62906;DHT22;49003;51.038;3.602;2022-09-02T09:34:10;24.80;97.00
62906;DHT22;49003;51.038;3.602;2022-09-02T09:36:50;24.70;96.50
62906;DHT22;49003;51.038;3.602;2022-09-02T09:41:46;24.90;97.30
62906;DHT22;49003;51.038;3.602;2022-09-02T09:44:38;25.10;97.10
62906;DHT22;49003;51.038;3.602;2022-09-02T09:47:07;25.30;96.40
62906;DHT22;49003;51.038;3.602;2022-09-02T09:49:34;25.30;96.70
62906;DHT22;49003;51.038;3.602;2022-09-02T09:52:03;25.50;96.20
62906;DHT22;49003;51.038;3.602;2022-09-02T09:54:32;25.60;96.20
62906;DHT22;49003;51.038;3.602;2022-09-02T09:57:19;25.80;95.60
62906;DHT22;49003;51.038;3.602;2022-09-02T09:59:46;25.70;94.90
62906;DHT22;49003;51.038;3.602;2022-09-02T10:02:24;25.70;95.50
62906;DHT22;49003;51.038;3.602;2022-09-02T10:05:09;25.90;95.30
62906;DHT22;49003;51.038;3.602;2022-09-02T10:07:40;26.10;94.90
62906;DHT22;49003;51.038;3.602;2022-09-02T10:10:21;26.20;94.20
62906;DHT22;49003;51.038;3.602;2022-09-02T10:12:50;26.20;93.50
62906;DHT22;49003;51.038;3.602;2022-09-02T10:15:30;25.90;94.20
62906;DHT22;49003;51.038;3.602;2022-09-02T10:26:24;25.90;92.50
62906;DHT22;49003;51.038;3.602;2022-09-02T10:29:22;26.10;94.60
62906;DHT22;49003;51.038;3.602;2022-09-02T10:37:44;26.20;92.50
62906;DHT22;49003;51.038;3.602;2022-09-02T10:40:24;26.10;93.70
62906;DHT22;49003;51.038;3.602;2022-09-02T10:43:07;26.50;91.80
62906;DHT22;49003;51.038;3.602;2022-09-02T10:45:47;26.70;92.50
62906;DHT22;49003;51.038;3.602;2022-09-02T10:56:54;27.50;91.80
62906;DHT22;49003;51.038;3.602;2022-09-02T11:07:25;27.80;91.60
62906;DHT22;49003;51.038;3.602;2022-09-02T11:09:55;28.00;90.30
62906;DHT22;49003;51.038;3.602;2022-09-02T11:12:33;28.00;90.60
62906;DHT22;49003;51.038;3.602;2022-09-02T11:15:17;28.10;90.60
62906;DHT22;49003;51.038;3.602;2022-09-02T11:17:55;28.20;90.50
62906;DHT22;49003;51.038;3.602;2022-09-02T11:20:40;28.40;89.60
62906;DHT22;49003;51.038;3.602;2022-09-02T11:29:00;28.30;90.10
62906;DHT22;49003;51.038;3.602;2022-09-02T11:31:43;28.50;88.60
62906;DHT22;49003;51.038;3.602;2022-09-02T11:34:33;28.90;88.00
62906;DHT22;49003;51.038;3.602;2022-09-02T11:37:23;29.00;86.50
62906;DHT22;49003;51.038;3.602;2022-09-02T11:39:57;28.60;87.10
62906;DHT22;49003;51.038;3.602;2022-09-02T11:43:07;28.30;87.60
62906;DHT22;49003;51.038;3.602;2022-09-02T11:54:15;28.30;88.50
62906;DHT22;49003;51.038;3.602;2022-09-02T11:56:47;28.40;87.80
62906;DHT22;49003;51.038;3.602;2022-09-02T12:00:07;28.70;88.00
62906;DHT22;49003;51.038;3.602;2022-09-02T12:02:09;29.10;84.50
62906;DHT22;49003;51.038;3.602;2022-09-02T12:04:38;29.30;83.80
62906;DHT22;49003;51.038;3.602;2022-09-02T12:09:49;29.70;82.90
62906;DHT22;49003;51.038;3.602;2022-09-02T12:15:12;30.80;82.10
62906;DHT22;49003;51.038;3.602;2022-09-02T12:23:10;30.50;79.30
62906;DHT22;49003;51.038;3.602;2022-09-02T12:26:04;30.80;79.80
62906;DHT22;49003;51.038;3.602;2022-09-02T12:28:32;31.20;80.60
62906;DHT22;49003;51.038;3.602;2022-09-02T12:35:58;30.60;75.30
62906;DHT22;49003;51.038;3.602;2022-09-02T12:38:43;30.70;79.60
62906;DHT22;49003;51.038;3.602;2022-09-02T12:41:30;30.40;77.80
62906;DHT22;49003;51.038;3.602;2022-09-02T12:47:27;30.30;77.40
62906;DHT22;49003;51.038;3.602;2022-09-02T12:50:11;30.20;78.20
62906;DHT22;49003;51.038;3.602;2022-09-02T12:53:04;30.60;78.40
62906;DHT22;49003;51.038;3.602;2022-09-02T12:55:31;31.20;78.30
62906;DHT22;49003;51.038;3.602;2022-09-02T12:58:07;31.70;77.00
62906;DHT22;49003;51.038;3.602;2022-09-02T13:07:01;31.20;75.00
62906;DHT22;49003;51.038;3.602;2022-09-02T13:31:40;30.30;73.50
62906;DHT22;49003;51.038;3.602;2022-09-02T13:34:11;30.50;77.30
62906;DHT22;49003;51.038;3.602;2022-09-02T13:36:42;31.00;76.10
62906;DHT22;49003;51.038;3.602;2022-09-02T13:39:29;31.60;72.70
62906;DHT22;49003;51.038;3.602;2022-09-02T13:41:55;31.80;72.50
62906;DHT22;49003;51.038;3.602;2022-09-02T13:44:25;31.90;74.90
62906;DHT22;49003;51.038;3.602;2022-09-02T13:47:04;32.60;74.40
62906;DHT22;49003;51.038;3.602;2022-09-02T13:49:40;33.00;74.00
62906;DHT22;49003;51.038;3.602;2022-09-02T13:52:11;33.00;72.80
62906;DHT22;49003;51.038;3.602;2022-09-02T13:54:45;32.90;74.10
62906;DHT22;49003;51.038;3.602;2022-09-02T13:57:15;32.60;71.80
62906;DHT22;49003;51.038;3.602;2022-09-02T13:59:48;31.90;72.90
62906;DHT22;49003;51.038;3.602;2022-09-02T14:02:31;31.30;74.00
62906;DHT22;49003;51.038;3.602;2022-09-02T14:05:00;31.00;72.70
62906;DHT22;49003;51.038;3.602;2022-09-02T14:07:38;30.80;72.20
62906;DHT22;49003;51.038;3.602;2022-09-02T14:10:07;30.40;75.60
62906;DHT22;49003;51.038;3.602;2022-09-02T14:12:35;30.10;76.10
62906;DHT22;49003;51.038;3.602;2022-09-02T14:15:02;29.70;77.10
62906;DHT22;49003;51.038;3.602;2022-09-02T14:17:32;29.50;76.70
62906;DHT22;49003;51.038;3.602;2022-09-02T14:20:26;29.70;76.10
62906;DHT22;49003;51.038;3.602;2022-09-02T14:22:54;29.80;74.90
62906;DHT22;49003;51.038;3.602;2022-09-02T14:25:25;29.80;76.70
62906;DHT22;49003;51.038;3.602;2022-09-02T14:27:58;29.70;76.90
62906;DHT22;49003;51.038;3.602;2022-09-02T14:30:40;29.40;77.20
62906;DHT22;49003;51.038;3.602;2022-09-02T14:33:23;29.20;78.20
62906;DHT22;49003;51.038;3.602;2022-09-02T14:41:24;28.40;79.60
62906;DHT22;49003;51.038;3.602;2022-09-02T14:43:56;28.30;78.40
62906;DHT22;49003;51.038;3.602;2022-09-02T14:46:37;28.30;80.50
62906;DHT22;49003;51.038;3.602;2022-09-02T14:49:08;28.20;82.90
62906;DHT22;49003;51.038;3.602;2022-09-02T14:51:44;28.10;83.30
62906;DHT22;49003;51.038;3.602;2022-09-02T14:54:10;28.10;80.70
62906;DHT22;49003;51.038;3.602;2022-09-02T14:56:48;27.90;80.60
62906;DHT22;49003;51.038;3.602;2022-09-02T14:59:14;27.80;81.20
62906;DHT22;49003;51.038;3.602;2022-09-02T15:01:41;27.80;82.40
62906;DHT22;49003;51.038;3.602;2022-09-02T15:04:11;27.70;83.30
62906;DHT22;49003;51.038;3.602;2022-09-02T15:06:37;27.70;81.10
62906;DHT22;49003;51.038;3.602;2022-09-02T15:09:03;27.60;81.70
62906;DHT22;49003;51.038;3.602;2022-09-02T15:11:31;27.40;81.30
62906;DHT22;49003;51.038;3.602;2022-09-02T15:13:59;27.30;82.60
62906;DHT22;49003;51.038;3.602;2022-09-02T15:16:24;27.20;82.60
62906;DHT22;49003;51.038;3.602;2022-09-02T15:18:50;27.10;83.00
62906;DHT22;49003;51.038;3.602;2022-09-02T15:21:19;26.90;82.60
62906;DHT22;49003;51.038;3.602;2022-09-02T15:23:47;26.70;83.30
62906;DHT22;49003;51.038;3.602;2022-09-02T15:26:14;26.60;84.00
62906;DHT22;49003;51.038;3.602;2022-09-02T15:28:44;26.50;83.30
62906;DHT22;49003;51.038;3.602;2022-09-02T15:31:10;26.40;83.20
62906;DHT22;49003;51.038;3.602;2022-09-02T15:33:37;26.20;81.90
62906;DHT22;49003;51.038;3.602;2022-09-02T15:36:08;25.90;84.20
62906;DHT22;49003;51.038;3.602;2022-09-02T15:38:38;25.80;85.80
62906;DHT22;49003;51.038;3.602;2022-09-02T15:41:19;25.60;86.90
62906;DHT22;49003;51.038;3.602;2022-09-02T15:43:46;25.50;88.00
62906;DHT22;49003;51.038;3.602;2022-09-02T15:46:25;25.20;89.20
62906;DHT22;49003;51.038;3.602;2022-09-02T15:48:55;25.10;90.30
62906;DHT22;49003;51.038;3.602;2022-09-02T15:51:24;24.80;90.90
62906;DHT22;49003;51.038;3.602;2022-09-02T15:53:56;24.40;91.20
62906;DHT22;49003;51.038;3.602;2022-09-02T15:56:24;24.10;92.00
62906;DHT22;49003;51.038;3.602;2022-09-02T15:59:18;23.90;92.10
62906;DHT22;49003;51.038;3.602;2022-09-02T16:01:52;23.80;92.40
62906;DHT22;49003;51.038;3.602;2022-09-02T16:04:24;23.80;92.40
62906;DHT22;49003;51.038;3.602;2022-09-02T16:06:52;23.70;92.50
62906;DHT22;49003;51.038;3.602;2022-09-02T16:09:20;23.60;92.80
62906;DHT22;49003;51.038;3.602;2022-09-02T16:11:47;23.40;93.00
62906;DHT22;49003;51.038;3.602;2022-09-02T16:14:14;23.30;93.30
62906;DHT22;49003;51.038;3.602;2022-09-02T16:16:43;23.20;93.70
62906;DHT22;49003;51.038;3.602;2022-09-02T16:19:10;23.00;94.10
62906;DHT22;49003;51.038;3.602;2022-09-02T16:21:37;22.90;94.50
62906;DHT22;49003;51.038;3.602;2022-09-02T16:24:04;22.80;94.90
62906;DHT22;49003;51.038;3.602;2022-09-02T16:26:32;22.60;95.20
62906;DHT22;49003;51.038;3.602;2022-09-02T16:29:03;22.40;95.80
62906;DHT22;49003;51.038;3.602;2022-09-02T16:31:31;22.20;96.40
62906;DHT22;49003;51.038;3.602;2022-09-02T16:34:05;22.20;96.70
62906;DHT22;49003;51.038;3.602;2022-09-02T16:36:38;22.10;97.00
62906;DHT22;49003;51.038;3.602;2022-09-02T16:39:05;22.00;97.10
62906;DHT22;49003;51.038;3.602;2022-09-02T16:41:44;22.00;97.40
62906;DHT22;49003;51.038;3.602;2022-09-02T16:44:16;21.90;97.70
62906;DHT22;49003;51.038;3.602;2022-09-02T16:46:43;22.00;97.70
62906;DHT22;49003;51.038;3.602;2022-09-02T16:49:11;22.10;98.20
62906;DHT22;49003;51.038;3.602;2022-09-02T16:51:38;22.20;98.20
62906;DHT22;49003;51.038;3.602;2022-09-02T16:54:06;22.30;98.10
62906;DHT22;49003;51.038;3.602;2022-09-02T16:56:33;22.30;97.90
62906;DHT22;49003;51.038;3.602;2022-09-02T16:59:05;22.30;97.80
62906;DHT22;49003;51.038;3.602;2022-09-02T17:01:33;22.30;97.90
62906;DHT22;49003;51.038;3.602;2022-09-02T17:04:00;22.20;98.20
62906;DHT22;49003;51.038;3.602;2022-09-02T17:06:26;22.20;98.50
62906;DHT22;49003;51.038;3.602;2022-09-02T17:08:52;22.20;98.70
62906;DHT22;49003;51.038;3.602;2022-09-02T17:11:26;22.20;98.90
62906;DHT22;49003;51.038;3.602;2022-09-02T17:16:18;22.20;98.80
62906;DHT22;49003;51.038;3.602;2022-09-02T17:18:44;22.20;98.90
62906;DHT22;49003;51.038;3.602;2022-09-02T17:21:24;22.10;99.30
62906;DHT22;49003;51.038;3.602;2022-09-02T17:23:51;22.20;99.90
62906;DHT22;49003;51.038;3.602;2022-09-02T17:26:19;22.20;99.90
62906;DHT22;49003;51.038;3.602;2022-09-02T17:28:45;22.10;99.90
62906;DHT22;49003;51.038;3.602;2022-09-02T17:31:34;22.00;99.90
62906;DHT22;49003;51.038;3.602;2022-09-02T17:34:02;22.00;99.90
62906;DHT22;49003;51.038;3.602;2022-09-02T17:36:29;21.90;99.90
62906;DHT22;49003;51.038;3.602;2022-09-02T17:38:59;21.90;99.90
62906;DHT22;49003;51.038;3.602;2022-09-02T17:41:26;21.80;99.90
62906;DHT22;49003;51.038;3.602;2022-09-02T17:44:11;21.80;99.90
62906;DHT22;49003;51.038;3.602;2022-09-02T17:46:38;21.80;99.90